sensor_id;sensor_type;location;lat;lon;timestamp;P1;durP1;ratioP1;P2;durP2;ratioP2
22417;SDS011;11376;50.932;4.442;2024-01-10T00:01:16;9.70;;;3.50;;
22417;SDS011;11376;50.932;4.442;2024-01-10T00:03:42;10.40;;;3.77;;
22417;SDS011;11376;50.932;4.442;2024-01-10T00:06:08;9.50;;;3.07;;
22417;SDS011;11376;50.932;4.442;2024-01-10T00:08:34;10.37;;;3.27;;
22417;SDS011;11376;50.932;4.442;2024-01-10T00:11:00;9.43;;;3.30;;
22417;SDS011;11376;50.932;4.442;2024-01-10T00:13:26;10.13;;;3.47;;
22417;SDS011;11376;50.932;4.442;2024-01-10T00:15:52;8.10;;;3.27;;
22417;SDS011;11376;50.932;4.442;2024-01-10T00:18:18;10.57;;;3.53;;
22417;SDS011;11376;50.932;4.442;2024-01-10T00:20:44;9.10;;;3.27;;
22417;SDS011;11376;50.932;4.442;2024-01-10T00:23:09;9.77;;;3.60;;
22417;SDS011;11376;50.932;4.442;2024-01-10T00:25:35;11.33;;;3.67;;
22417;SDS011;11376;50.932;4.442;2024-01-10T00:28:01;10.40;;;3.67;;
22417;SDS011;11376;50.932;4.442;2024-01-10T00:30:26;10.73;;;3.60;;
22417;SDS011;11376;50.932;4.442;2024-01-10T00:32:52;10.63;;;3.50;;
22417;SDS011;11376;50.932;4.442;2024-01-10T00:35:17;12.47;;;3.80;;
22417;SDS011;11376;50.932;4.442;2024-01-10T00:37:43;9.30;;;3.27;;
22417;SDS011;11376;50.932;4.442;2024-01-10T00:40:09;10.97;;;3.30;;
22417;SDS011;11376;50.932;4.442;2024-01-10T00:42:35;12.60;;;4.40;;
22417;SDS011;11376;50.932;4.442;2024-01-10T00:45:01;10.37;;;3.50;;
22417;SDS011;11376;50.932;4.442;2024-01-10T00:47:26;9.50;;;3.50;;
22417;SDS011;11376;50.932;4.442;2024-01-10T00:49:52;11.47;;;4.07;;
22417;SDS011;11376;50.932;4.442;2024-01-10T00:52:18;9.93;;;3.43;;
22417;SDS011;11376;50.932;4.442;2024-01-10T00:54:44;11.30;;;4.20;;
22417;SDS011;11376;50.932;4.442;2024-01-10T00:57:11;9.97;;;3.70;;
22417;SDS011;11376;50.932;4.442;2024-01-10T00:59:36;11.47;;;3.90;;
22417;SDS011;11376;50.932;4.442;2024-01-10T01:02:02;12.07;;;3.70;;
22417;SDS011;11376;50.932;4.442;2024-01-10T01:04:28;10.93;;;3.80;;
22417;SDS011;11376;50.932;4.442;2024-01-10T01:06:53;11.67;;;3.63;;
22417;SDS011;11376;50.932;4.442;2024-01-10T01:09:19;12.30;;;4.47;;
22417;SDS011;11376;50.932;4.442;2024-01-10T01:11:45;11.03;;;3.83;;
22417;SDS011;11376;50.932;4.442;2024-01-10T01:14:10;11.13;;;3.80;;
22417;SDS011;11376;50.932;4.442;2024-01-10T01:16:36;9.93;;;3.70;;
22417;SDS011;11376;50.932;4.442;2024-01-10T01:19:02;14.87;;;3.60;;
22417;SDS011;11376;50.932;4.442;2024-01-10T01:21:27;10.57;;;3.63;;
22417;SDS011;11376;50.932;4.442;2024-01-10T01:23:54;10.03;;;3.63;;
22417;SDS011;11376;50.932;4.442;2024-01-10T01:26:19;7.40;;;3.17;;
22417;SDS011;11376;50.932;4.442;2024-01-10T01:28:45;9.67;;;3.73;;
22417;SDS011;11376;50.932;4.442;2024-01-10T01:31:10;12.23;;;3.60;;
22417;SDS011;11376;50.932;4.442;2024-01-10T01:33:36;10.13;;;3.40;;
22417;SDS011;11376;50.932;4.442;2024-01-10T01:36:04;10.00;;;3.60;;
22417;SDS011;11376;50.932;4.442;2024-01-10T01:38:30;10.07;;;3.60;;
22417;SDS011;11376;50.932;4.442;2024-01-10T01:40:56;7.90;;;3.43;;
22417;SDS011;11376;50.932;4.442;2024-01-10T01:43:22;7.63;;;3.57;;
22417;SDS011;11376;50.932;4.442;2024-01-10T01:45:50;11.67;;;4.30;;
22417;SDS011;11376;50.932;4.442;2024-01-10T01:48:19;9.93;;;3.70;;
22417;SDS011;11376;50.932;4.442;2024-01-10T01:50:45;12.07;;;3.97;;
22417;SDS011;11376;50.932;4.442;2024-01-10T01:53:13;8.77;;;3.40;;
22417;SDS011;11376;50.932;4.442;2024-01-10T01:55:40;8.33;;;3.73;;
22417;SDS011;11376;50.932;4.442;2024-01-10T01:58:08;11.60;;;3.77;;
22417;SDS011;11376;50.932;4.442;2024-01-10T02:00:34;9.63;;;3.43;;
22417;SDS011;11376;50.932;4.442;2024-01-10T02:03:01;16.13;;;4.00;;
22417;SDS011;11376;50.932;4.442;2024-01-10T02:05:27;11.20;;;4.03;;
22417;SDS011;11376;50.932;4.442;2024-01-10T02:07:53;9.90;;;3.47;;
22417;SDS011;11376;50.932;4.442;2024-01-10T02:10:20;12.47;;;3.73;;
22417;SDS011;11376;50.932;4.442;2024-01-10T02:12:46;11.77;;;4.00;;
22417;SDS011;11376;50.932;4.442;2024-01-10T02:15:12;12.70;;;3.77;;
22417;SDS011;11376;50.932;4.442;2024-01-10T02:17:39;13.20;;;4.03;;
22417;SDS011;11376;50.932;4.442;2024-01-10T02:20:08;10.60;;;4.20;;
22417;SDS011;11376;50.932;4.442;2024-01-10T02:22:35;10.07;;;3.97;;
22417;SDS011;11376;50.932;4.442;2024-01-10T02:25:00;11.27;;;4.07;;
22417;SDS011;11376;50.932;4.442;2024-01-10T02:27:26;15.63;;;4.20;;
22417;SDS011;11376;50.932;4.442;2024-01-10T02:29:53;10.50;;;4.00;;
22417;SDS011;11376;50.932;4.442;2024-01-10T02:32:19;10.83;;;4.10;;
22417;SDS011;11376;50.932;4.442;2024-01-10T02:34:45;11.07;;;4.00;;
22417;SDS011;11376;50.932;4.442;2024-01-10T02:37:10;10.80;;;3.77;;
22417;SDS011;11376;50.932;4.442;2024-01-10T02:39:36;11.60;;;4.13;;
22417;SDS011;11376;50.932;4.442;2024-01-10T02:42:02;9.40;;;3.70;;
22417;SDS011;11376;50.932;4.442;2024-01-10T02:44:27;10.10;;;3.50;;
22417;SDS011;11376;50.932;4.442;2024-01-10T02:46:53;12.53;;;4.27;;
22417;SDS011;11376;50.932;4.442;2024-01-10T02:49:18;12.67;;;4.33;;
22417;SDS011;11376;50.932;4.442;2024-01-10T02:51:44;11.20;;;4.20;;
22417;SDS011;11376;50.932;4.442;2024-01-10T02:54:10;13.80;;;4.57;;
22417;SDS011;11376;50.932;4.442;2024-01-10T02:56:36;11.40;;;4.00;;
22417;SDS011;11376;50.932;4.442;2024-01-10T02:59:01;9.37;;;3.50;;
22417;SDS011;11376;50.932;4.442;2024-01-10T03:01:27;13.33;;;4.40;;
22417;SDS011;11376;50.932;4.442;2024-01-10T03:03:53;11.57;;;4.10;;
22417;SDS011;11376;50.932;4.442;2024-01-10T03:06:19;10.90;;;4.17;;
22417;SDS011;11376;50.932;4.442;2024-01-10T03:08:44;9.70;;;4.13;;
22417;SDS011;11376;50.932;4.442;2024-01-10T03:11:10;8.40;;;3.10;;
22417;SDS011;11376;50.932;4.442;2024-01-10T03:13:35;8.90;;;3.47;;
22417;SDS011;11376;50.932;4.442;2024-01-10T03:16:02;9.87;;;3.87;;
22417;SDS011;11376;50.932;4.442;2024-01-10T03:18:28;8.87;;;3.73;;
22417;SDS011;11376;50.932;4.442;2024-01-10T03:20:54;12.63;;;4.13;;
22417;SDS011;11376;50.932;4.442;2024-01-10T03:23:20;10.13;;;3.93;;
22417;SDS011;11376;50.932;4.442;2024-01-10T03:25:47;16.07;;;4.43;;
22417;SDS011;11376;50.932;4.442;2024-01-10T03:28:16;15.23;;;4.40;;
22417;SDS011;11376;50.932;4.442;2024-01-10T03:30:42;13.70;;;4.60;;
22417;SDS011;11376;50.932;4.442;2024-01-10T03:33:08;14.03;;;4.20;;
22417;SDS011;11376;50.932;4.442;2024-01-10T03:35:34;11.87;;;4.30;;
22417;SDS011;11376;50.932;4.442;2024-01-10T03:37:59;13.47;;;4.40;;
22417;SDS011;11376;50.932;4.442;2024-01-10T03:40:25;10.13;;;4.33;;
22417;SDS011;11376;50.932;4.442;2024-01-10T03:42:51;10.23;;;4.10;;
22417;SDS011;11376;50.932;4.442;2024-01-10T03:45:17;13.20;;;4.00;;
22417;SDS011;11376;50.932;4.442;2024-01-10T03:47:45;13.90;;;4.20;;
22417;SDS011;11376;50.932;4.442;2024-01-10T03:50:15;11.17;;;4.07;;
22417;SDS011;11376;50.932;4.442;2024-01-10T03:52:42;12.50;;;4.27;;
22417;SDS011;11376;50.932;4.442;2024-01-10T03:55:08;9.83;;;3.53;;
22417;SDS011;11376;50.932;4.442;2024-01-10T03:57:34;12.33;;;4.50;;
22417;SDS011;11376;50.932;4.442;2024-01-10T04:00:00;12.70;;;4.10;;
22417;SDS011;11376;50.932;4.442;2024-01-10T04:02:25;10.50;;;3.73;;
22417;SDS011;11376;50.932;4.442;2024-01-10T04:04:53;11.73;;;3.97;;
22417;SDS011;11376;50.932;4.442;2024-01-10T04:07:18;12.13;;;4.20;;
22417;SDS011;11376;50.932;4.442;2024-01-10T04:09:44;11.37;;;4.37;;
22417;SDS011;11376;50.932;4.442;2024-01-10T04:12:10;13.23;;;3.87;;
22417;SDS011;11376;50.932;4.442;2024-01-10T04:14:36;11.23;;;4.13;;
22417;SDS011;11376;50.932;4.442;2024-01-10T04:17:01;10.30;;;3.80;;
22417;SDS011;11376;50.932;4.442;2024-01-10T04:19:29;11.50;;;4.50;;
22417;SDS011;11376;50.932;4.442;2024-01-10T04:21:55;10.70;;;3.73;;
22417;SDS011;11376;50.932;4.442;2024-01-10T04:24:21;11.30;;;4.00;;
22417;SDS011;11376;50.932;4.442;2024-01-10T04:26:46;16.63;;;4.33;;
22417;SDS011;11376;50.932;4.442;2024-01-10T04:29:12;13.73;;;3.80;;
22417;SDS011;11376;50.932;4.442;2024-01-10T04:31:38;15.03;;;4.47;;
22417;SDS011;11376;50.932;4.442;2024-01-10T04:34:03;9.83;;;3.80;;
22417;SDS011;11376;50.932;4.442;2024-01-10T04:36:29;12.17;;;3.67;;
22417;SDS011;11376;50.932;4.442;2024-01-10T04:38:54;9.53;;;3.83;;
22417;SDS011;11376;50.932;4.442;2024-01-10T04:41:20;12.93;;;4.50;;
22417;SDS011;11376;50.932;4.442;2024-01-10T04:43:46;12.63;;;4.30;;
22417;SDS011;11376;50.932;4.442;2024-01-10T04:46:11;13.23;;;4.80;;
22417;SDS011;11376;50.932;4.442;2024-01-10T04:48:37;11.83;;;4.03;;
22417;SDS011;11376;50.932;4.442;2024-01-10T04:51:03;11.90;;;4.07;;
22417;SDS011;11376;50.932;4.442;2024-01-10T04:53:28;10.87;;;3.77;;
22417;SDS011;11376;50.932;4.442;2024-01-10T04:55:54;11.67;;;4.50;;
22417;SDS011;11376;50.932;4.442;2024-01-10T04:58:19;14.30;;;4.67;;
22417;SDS011;11376;50.932;4.442;2024-01-10T05:00:45;10.43;;;3.50;;
22417;SDS011;11376;50.932;4.442;2024-01-10T05:03:11;13.50;;;4.03;;
22417;SDS011;11376;50.932;4.442;2024-01-10T05:05:37;11.63;;;4.10;;
22417;SDS011;11376;50.932;4.442;2024-01-10T05:08:02;10.87;;;3.93;;
22417;SDS011;11376;50.932;4.442;2024-01-10T05:10:28;13.27;;;4.30;;
22417;SDS011;11376;50.932;4.442;2024-01-10T05:12:54;14.63;;;4.23;;
22417;SDS011;11376;50.932;4.442;2024-01-10T05:15:20;11.50;;;4.43;;
22417;SDS011;11376;50.932;4.442;2024-01-10T05:17:45;13.83;;;4.40;;
22417;SDS011;11376;50.932;4.442;2024-01-10T05:20:11;12.33;;;4.67;;
22417;SDS011;11376;50.932;4.442;2024-01-10T05:22:37;11.63;;;3.73;;
22417;SDS011;11376;50.932;4.442;2024-01-10T05:25:03;14.90;;;5.23;;
22417;SDS011;11376;50.932;4.442;2024-01-10T05:27:29;14.53;;;4.10;;
22417;SDS011;11376;50.932;4.442;2024-01-10T05:29:55;12.93;;;4.23;;
22417;SDS011;11376;50.932;4.442;2024-01-10T05:32:20;11.80;;;4.17;;
22417;SDS011;11376;50.932;4.442;2024-01-10T05:34:46;9.40;;;3.53;;
22417;SDS011;11376;50.932;4.442;2024-01-10T05:37:13;11.53;;;4.27;;
22417;SDS011;11376;50.932;4.442;2024-01-10T05:39:38;8.53;;;3.77;;
22417;SDS011;11376;50.932;4.442;2024-01-10T05:42:04;14.20;;;4.20;;
22417;SDS011;11376;50.932;4.442;2024-01-10T05:44:30;12.13;;;3.73;;
22417;SDS011;11376;50.932;4.442;2024-01-10T05:46:55;10.27;;;3.83;;
22417;SDS011;11376;50.932;4.442;2024-01-10T05:49:24;10.90;;;4.57;;
22417;SDS011;11376;50.932;4.442;2024-01-10T05:51:50;11.20;;;4.43;;
22417;SDS011;11376;50.932;4.442;2024-01-10T05:54:16;11.23;;;4.30;;
22417;SDS011;11376;50.932;4.442;2024-01-10T05:56:43;12.43;;;4.70;;
22417;SDS011;11376;50.932;4.442;2024-01-10T05:59:08;9.60;;;3.57;;
22417;SDS011;11376;50.932;4.442;2024-01-10T06:01:36;10.93;;;4.30;;
22417;SDS011;11376;50.932;4.442;2024-01-10T06:04:03;11.00;;;3.80;;
22417;SDS011;11376;50.932;4.442;2024-01-10T06:06:29;11.87;;;4.00;;
22417;SDS011;11376;50.932;4.442;2024-01-10T06:08:55;10.53;;;3.90;;
22417;SDS011;11376;50.932;4.442;2024-01-10T06:11:21;11.10;;;3.90;;
22417;SDS011;11376;50.932;4.442;2024-01-10T06:13:47;15.00;;;4.37;;
22417;SDS011;11376;50.932;4.442;2024-01-10T06:16:12;12.10;;;3.93;;
22417;SDS011;11376;50.932;4.442;2024-01-10T06:18:38;12.10;;;3.70;;
22417;SDS011;11376;50.932;4.442;2024-01-10T06:21:04;9.90;;;3.83;;
22417;SDS011;11376;50.932;4.442;2024-01-10T06:23:30;12.53;;;3.80;;
22417;SDS011;11376;50.932;4.442;2024-01-10T06:25:56;14.40;;;4.00;;
22417;SDS011;11376;50.932;4.442;2024-01-10T06:28:21;10.43;;;4.10;;
22417;SDS011;11376;50.932;4.442;2024-01-10T06:30:48;13.63;;;4.47;;
22417;SDS011;11376;50.932;4.442;2024-01-10T06:33:14;10.07;;;3.70;;
22417;SDS011;11376;50.932;4.442;2024-01-10T06:35:41;11.27;;;3.57;;
22417;SDS011;11376;50.932;4.442;2024-01-10T06:38:09;10.47;;;3.70;;
22417;SDS011;11376;50.932;4.442;2024-01-10T06:40:34;11.60;;;4.43;;
22417;SDS011;11376;50.932;4.442;2024-01-10T06:43:01;10.20;;;4.20;;
22417;SDS011;11376;50.932;4.442;2024-01-10T06:45:27;9.63;;;3.87;;
22417;SDS011;11376;50.932;4.442;2024-01-10T06:47:53;8.77;;;4.20;;
22417;SDS011;11376;50.932;4.442;2024-01-10T06:50:20;12.27;;;3.90;;
22417;SDS011;11376;50.932;4.442;2024-01-10T06:52:46;11.13;;;4.10;;
22417;SDS011;11376;50.932;4.442;2024-01-10T06:55:13;11.50;;;4.43;;
22417;SDS011;11376;50.932;4.442;2024-01-10T06:57:38;12.47;;;3.83;;
22417;SDS011;11376;50.932;4.442;2024-01-10T07:00:04;9.47;;;3.07;;
22417;SDS011;11376;50.932;4.442;2024-01-10T07:02:35;10.57;;;3.87;;
22417;SDS011;11376;50.932;4.442;2024-01-10T07:05:08;12.80;;;4.20;;
22417;SDS011;11376;50.932;4.442;2024-01-10T07:07:34;9.63;;;3.70;;
22417;SDS011;11376;50.932;4.442;2024-01-10T07:10:00;10.77;;;4.23;;
22417;SDS011;11376;50.932;4.442;2024-01-10T07:12:30;12.10;;;4.10;;
22417;SDS011;11376;50.932;4.442;2024-01-10T07:14:56;11.87;;;4.17;;
22417;SDS011;11376;50.932;4.442;2024-01-10T07:17:22;9.00;;;3.77;;
22417;SDS011;11376;50.932;4.442;2024-01-10T07:19:47;9.97;;;3.73;;
22417;SDS011;11376;50.932;4.442;2024-01-10T07:22:13;11.37;;;3.53;;
22417;SDS011;11376;50.932;4.442;2024-01-10T07:24:39;9.63;;;3.87;;
22417;SDS011;11376;50.932;4.442;2024-01-10T07:27:05;15.30;;;4.23;;
22417;SDS011;11376;50.932;4.442;2024-01-10T07:29:32;8.63;;;3.77;;
22417;SDS011;11376;50.932;4.442;2024-01-10T07:31:57;12.50;;;4.50;;
22417;SDS011;11376;50.932;4.442;2024-01-10T07:34:23;15.20;;;4.67;;
22417;SDS011;11376;50.932;4.442;2024-01-10T07:36:48;11.13;;;3.90;;
22417;SDS011;11376;50.932;4.442;2024-01-10T07:39:14;10.87;;;3.67;;
22417;SDS011;11376;50.932;4.442;2024-01-10T07:41:45;10.97;;;4.00;;
22417;SDS011;11376;50.932;4.442;2024-01-10T07:44:12;10.80;;;4.17;;
22417;SDS011;11376;50.932;4.442;2024-01-10T07:46:37;11.40;;;4.33;;
22417;SDS011;11376;50.932;4.442;2024-01-10T07:49:04;9.37;;;3.77;;
22417;SDS011;11376;50.932;4.442;2024-01-10T07:51:30;10.33;;;3.80;;
22417;SDS011;11376;50.932;4.442;2024-01-10T07:53:56;12.33;;;4.40;;
22417;SDS011;11376;50.932;4.442;2024-01-10T07:56:21;11.13;;;4.00;;
22417;SDS011;11376;50.932;4.442;2024-01-10T07:58:47;18.87;;;3.90;;
22417;SDS011;11376;50.932;4.442;2024-01-10T08:01:17;9.93;;;4.13;;
22417;SDS011;11376;50.932;4.442;2024-01-10T08:03:42;14.67;;;3.80;;
22417;SDS011;11376;50.932;4.442;2024-01-10T08:06:08;11.67;;;4.13;;
22417;SDS011;11376;50.932;4.442;2024-01-10T08:08:35;11.67;;;3.90;;
22417;SDS011;11376;50.932;4.442;2024-01-10T08:11:01;11.50;;;4.57;;
22417;SDS011;11376;50.932;4.442;2024-01-10T08:13:27;13.40;;;4.60;;
22417;SDS011;11376;50.932;4.442;2024-01-10T08:15:53;15.27;;;5.30;;
22417;SDS011;11376;50.932;4.442;2024-01-10T08:18:19;10.97;;;4.30;;
22417;SDS011;11376;50.932;4.442;2024-01-10T08:20:45;12.33;;;4.87;;
22417;SDS011;11376;50.932;4.442;2024-01-10T08:23:10;13.30;;;4.43;;
22417;SDS011;11376;50.932;4.442;2024-01-10T08:25:36;13.47;;;4.70;;
22417;SDS011;11376;50.932;4.442;2024-01-10T08:28:03;11.90;;;3.93;;
22417;SDS011;11376;50.932;4.442;2024-01-10T08:30:29;12.40;;;4.27;;
22417;SDS011;11376;50.932;4.442;2024-01-10T08:32:54;15.10;;;4.50;;
22417;SDS011;11376;50.932;4.442;2024-01-10T08:35:20;9.43;;;4.10;;
22417;SDS011;11376;50.932;4.442;2024-01-10T08:37:45;14.17;;;4.83;;
22417;SDS011;11376;50.932;4.442;2024-01-10T08:40:11;10.17;;;4.20;;
22417;SDS011;11376;50.932;4.442;2024-01-10T08:42:40;10.83;;;4.37;;
22417;SDS011;11376;50.932;4.442;2024-01-10T08:45:07;14.23;;;5.07;;
22417;SDS011;11376;50.932;4.442;2024-01-10T08:47:34;11.03;;;4.40;;
22417;SDS011;11376;50.932;4.442;2024-01-10T08:50:04;10.23;;;3.87;;
22417;SDS011;11376;50.932;4.442;2024-01-10T08:52:30;9.53;;;3.87;;
22417;SDS011;11376;50.932;4.442;2024-01-10T08:54:57;12.13;;;4.00;;
22417;SDS011;11376;50.932;4.442;2024-01-10T08:57:23;11.27;;;4.10;;
22417;SDS011;11376;50.932;4.442;2024-01-10T08:59:48;17.47;;;4.53;;
22417;SDS011;11376;50.932;4.442;2024-01-10T09:02:14;9.30;;;4.13;;
22417;SDS011;11376;50.932;4.442;2024-01-10T09:04:39;11.73;;;4.73;;
22417;SDS011;11376;50.932;4.442;2024-01-10T09:07:06;12.97;;;4.83;;
22417;SDS011;11376;50.932;4.442;2024-01-10T09:09:34;11.37;;;4.60;;
22417;SDS011;11376;50.932;4.442;2024-01-10T09:12:00;13.97;;;4.73;;
22417;SDS011;11376;50.932;4.442;2024-01-10T09:14:25;14.43;;;4.70;;
22417;SDS011;11376;50.932;4.442;2024-01-10T09:16:51;10.50;;;4.30;;
22417;SDS011;11376;50.932;4.442;2024-01-10T09:19:17;13.17;;;4.43;;
22417;SDS011;11376;50.932;4.442;2024-01-10T09:21:43;15.43;;;4.10;;
22417;SDS011;11376;50.932;4.442;2024-01-10T09:24:09;14.37;;;4.67;;
22417;SDS011;11376;50.932;4.442;2024-01-10T09:26:36;11.13;;;4.20;;
22417;SDS011;11376;50.932;4.442;2024-01-10T09:29:02;15.33;;;4.20;;
22417;SDS011;11376;50.932;4.442;2024-01-10T09:31:27;11.13;;;4.83;;
22417;SDS011;11376;50.932;4.442;2024-01-10T09:33:53;11.20;;;4.73;;
22417;SDS011;11376;50.932;4.442;2024-01-10T09:36:18;14.47;;;4.80;;
22417;SDS011;11376;50.932;4.442;2024-01-10T09:38:44;10.83;;;4.40;;
22417;SDS011;11376;50.932;4.442;2024-01-10T09:41:10;12.17;;;4.80;;
22417;SDS011;11376;50.932;4.442;2024-01-10T09:43:38;10.63;;;4.60;;
22417;SDS011;11376;50.932;4.442;2024-01-10T09:46:04;14.77;;;4.33;;
22417;SDS011;11376;50.932;4.442;2024-01-10T09:48:32;9.93;;;4.30;;
22417;SDS011;11376;50.932;4.442;2024-01-10T09:50:58;10.07;;;4.10;;
22417;SDS011;11376;50.932;4.442;2024-01-10T09:53:25;11.03;;;4.70;;
22417;SDS011;11376;50.932;4.442;2024-01-10T09:55:52;13.17;;;5.00;;
22417;SDS011;11376;50.932;4.442;2024-01-10T09:58:22;11.70;;;4.67;;
22417;SDS011;11376;50.932;4.442;2024-01-10T10:00:49;12.47;;;5.20;;
22417;SDS011;11376;50.932;4.442;2024-01-10T10:03:14;12.57;;;4.90;;
22417;SDS011;11376;50.932;4.442;2024-01-10T10:05:43;11.47;;;5.07;;
22417;SDS011;11376;50.932;4.442;2024-01-10T10:08:13;12.20;;;4.63;;
22417;SDS011;11376;50.932;4.442;2024-01-10T10:10:48;10.87;;;5.13;;
22417;SDS011;11376;50.932;4.442;2024-01-10T10:13:24;13.40;;;5.40;;
22417;SDS011;11376;50.932;4.442;2024-01-10T10:16:00;12.20;;;5.43;;
22417;SDS011;11376;50.932;4.442;2024-01-10T10:18:28;12.80;;;5.30;;
22417;SDS011;11376;50.932;4.442;2024-01-10T10:21:07;11.87;;;5.80;;
22417;SDS011;11376;50.932;4.442;2024-01-10T10:23:37;15.63;;;5.90;;
22417;SDS011;11376;50.932;4.442;2024-01-10T10:26:14;10.90;;;6.17;;
22417;SDS011;11376;50.932;4.442;2024-01-10T10:28:47;13.93;;;5.93;;
22417;SDS011;11376;50.932;4.442;2024-01-10T10:31:13;14.57;;;6.20;;
22417;SDS011;11376;50.932;4.442;2024-01-10T10:33:40;15.90;;;6.57;;
22417;SDS011;11376;50.932;4.442;2024-01-10T10:36:07;14.80;;;6.80;;
22417;SDS011;11376;50.932;4.442;2024-01-10T10:38:33;15.27;;;6.73;;
22417;SDS011;11376;50.932;4.442;2024-01-10T10:40:59;12.90;;;6.80;;
22417;SDS011;11376;50.932;4.442;2024-01-10T10:43:25;13.53;;;6.40;;
22417;SDS011;11376;50.932;4.442;2024-01-10T10:45:51;14.27;;;7.00;;
22417;SDS011;11376;50.932;4.442;2024-01-10T10:48:20;13.13;;;7.63;;
22417;SDS011;11376;50.932;4.442;2024-01-10T10:50:50;14.90;;;6.60;;
22417;SDS011;11376;50.932;4.442;2024-01-10T10:53:25;12.87;;;6.90;;
22417;SDS011;11376;50.932;4.442;2024-01-10T10:55:53;16.13;;;7.03;;
22417;SDS011;11376;50.932;4.442;2024-01-10T10:58:20;16.20;;;6.90;;
22417;SDS011;11376;50.932;4.442;2024-01-10T11:00:46;14.53;;;6.47;;
22417;SDS011;11376;50.932;4.442;2024-01-10T11:03:13;16.00;;;7.30;;
22417;SDS011;11376;50.932;4.442;2024-01-10T11:05:41;13.97;;;7.33;;
22417;SDS011;11376;50.932;4.442;2024-01-10T11:08:08;15.13;;;7.37;;
22417;SDS011;11376;50.932;4.442;2024-01-10T11:10:39;15.87;;;6.70;;
22417;SDS011;11376;50.932;4.442;2024-01-10T11:15:55;14.70;;;7.00;;
22417;SDS011;11376;50.932;4.442;2024-01-10T11:22:00;13.90;;;6.50;;
22417;SDS011;11376;50.932;4.442;2024-01-10T11:24:41;14.63;;;7.03;;
22417;SDS011;11376;50.932;4.442;2024-01-10T11:27:22;15.93;;;8.07;;
22417;SDS011;11376;50.932;4.442;2024-01-10T11:29:47;13.50;;;7.50;;
22417;SDS011;11376;50.932;4.442;2024-01-10T11:32:14;12.73;;;6.90;;
22417;SDS011;11376;50.932;4.442;2024-01-10T11:34:54;14.02;;;7.32;;
22417;SDS011;11376;50.932;4.442;2024-01-10T11:37:27;14.88;;;7.35;;
22417;SDS011;11376;50.932;4.442;2024-01-10T11:40:03;15.65;;;6.90;;
22417;SDS011;11376;50.932;4.442;2024-01-10T11:42:40;14.45;;;7.85;;
22417;SDS011;11376;50.932;4.442;2024-01-10T11:45:07;15.27;;;7.50;;
22417;SDS011;11376;50.932;4.442;2024-01-10T11:47:33;14.07;;;7.50;;
22417;SDS011;11376;50.932;4.442;2024-01-10T11:49:59;15.80;;;7.95;;
22417;SDS011;11376;50.932;4.442;2024-01-10T11:52:33;14.75;;;7.50;;
22417;SDS011;11376;50.932;4.442;2024-01-10T11:55:01;14.80;;;7.88;;
22417;SDS011;11376;50.932;4.442;2024-01-10T11:57:28;14.68;;;7.90;;
22417;SDS011;11376;50.932;4.442;2024-01-10T11:59:57;15.82;;;7.93;;
22417;SDS011;11376;50.932;4.442;2024-01-10T12:02:25;15.23;;;8.00;;
22417;SDS011;11376;50.932;4.442;2024-01-10T12:04:52;15.07;;;7.07;;
22417;SDS011;11376;50.932;4.442;2024-01-10T12:07:18;16.67;;;7.55;;
22417;SDS011;11376;50.932;4.442;2024-01-10T12:09:45;15.65;;;8.48;;
22417;SDS011;11376;50.932;4.442;2024-01-10T12:12:12;14.33;;;8.40;;
22417;SDS011;11376;50.932;4.442;2024-01-10T12:14:38;15.03;;;7.83;;
22417;SDS011;11376;50.932;4.442;2024-01-10T12:17:05;15.57;;;7.83;;
22417;SDS011;11376;50.932;4.442;2024-01-10T12:19:34;12.75;;;7.28;;
22417;SDS011;11376;50.932;4.442;2024-01-10T12:22:00;13.70;;;7.30;;
22417;SDS011;11376;50.932;4.442;2024-01-10T12:24:30;13.40;;;7.50;;
22417;SDS011;11376;50.932;4.442;2024-01-10T12:26:56;20.08;;;7.97;;
22417;SDS011;11376;50.932;4.442;2024-01-10T12:29:21;14.77;;;7.60;;
22417;SDS011;11376;50.932;4.442;2024-01-10T12:31:47;14.95;;;7.93;;
22417;SDS011;11376;50.932;4.442;2024-01-10T12:34:13;14.57;;;7.78;;
22417;SDS011;11376;50.932;4.442;2024-01-10T12:36:40;17.48;;;8.10;;
22417;SDS011;11376;50.932;4.442;2024-01-10T12:39:07;14.98;;;7.78;;
22417;SDS011;11376;50.932;4.442;2024-01-10T12:41:33;22.08;;;9.00;;
22417;SDS011;11376;50.932;4.442;2024-01-10T12:44:00;19.25;;;8.48;;
22417;SDS011;11376;50.932;4.442;2024-01-10T12:46:28;14.35;;;7.63;;
22417;SDS011;11376;50.932;4.442;2024-01-10T12:49:12;14.32;;;7.53;;
22417;SDS011;11376;50.932;4.442;2024-01-10T12:51:40;13.70;;;7.75;;
22417;SDS011;11376;50.932;4.442;2024-01-10T12:54:11;12.45;;;7.30;;
22417;SDS011;11376;50.932;4.442;2024-01-10T12:56:36;16.33;;;7.95;;
22417;SDS011;11376;50.932;4.442;2024-01-10T12:59:02;13.98;;;7.30;;
22417;SDS011;11376;50.932;4.442;2024-01-10T13:01:28;15.27;;;7.78;;
22417;SDS011;11376;50.932;4.442;2024-01-10T13:03:54;14.23;;;7.57;;
22417;SDS011;11376;50.932;4.442;2024-01-10T13:06:21;17.45;;;8.45;;
22417;SDS011;11376;50.932;4.442;2024-01-10T13:08:47;16.45;;;8.60;;
22417;SDS011;11376;50.932;4.442;2024-01-10T13:11:13;14.98;;;7.53;;
22417;SDS011;11376;50.932;4.442;2024-01-10T13:13:40;15.20;;;7.80;;
22417;SDS011;11376;50.932;4.442;2024-01-10T13:16:08;15.17;;;7.40;;
22417;SDS011;11376;50.932;4.442;2024-01-10T13:18:35;17.05;;;7.88;;
22417;SDS011;11376;50.932;4.442;2024-01-10T13:21:02;16.58;;;7.57;;
22417;SDS011;11376;50.932;4.442;2024-01-10T13:23:28;13.65;;;7.25;;
22417;SDS011;11376;50.932;4.442;2024-01-10T13:25:54;14.85;;;7.85;;
22417;SDS011;11376;50.932;4.442;2024-01-10T13:28:19;14.43;;;7.70;;
22417;SDS011;11376;50.932;4.442;2024-01-10T13:30:45;16.15;;;8.70;;
22417;SDS011;11376;50.932;4.442;2024-01-10T13:33:11;14.43;;;7.32;;
22417;SDS011;11376;50.932;4.442;2024-01-10T13:35:37;15.63;;;7.97;;
22417;SDS011;11376;50.932;4.442;2024-01-10T13:38:03;15.35;;;7.93;;
22417;SDS011;11376;50.932;4.442;2024-01-10T13:40:30;15.52;;;8.45;;
22417;SDS011;11376;50.932;4.442;2024-01-10T13:42:56;17.15;;;7.93;;
22417;SDS011;11376;50.932;4.442;2024-01-10T13:45:23;16.13;;;8.45;;
22417;SDS011;11376;50.932;4.442;2024-01-10T13:47:48;15.18;;;8.40;;
22417;SDS011;11376;50.932;4.442;2024-01-10T13:50:14;15.35;;;8.55;;
22417;SDS011;11376;50.932;4.442;2024-01-10T13:52:41;16.25;;;8.55;;
22417;SDS011;11376;50.932;4.442;2024-01-10T13:55:07;17.75;;;8.68;;
22417;SDS011;11376;50.932;4.442;2024-01-10T13:57:33;15.30;;;8.13;;
22417;SDS011;11376;50.932;4.442;2024-01-10T13:59:59;17.25;;;8.60;;
22417;SDS011;11376;50.932;4.442;2024-01-10T14:02:25;17.15;;;8.32;;
22417;SDS011;11376;50.932;4.442;2024-01-10T14:04:51;18.27;;;8.57;;
22417;SDS011;11376;50.932;4.442;2024-01-10T14:07:19;19.08;;;8.70;;
22417;SDS011;11376;50.932;4.442;2024-01-10T14:09:45;17.63;;;7.95;;
22417;SDS011;11376;50.932;4.442;2024-01-10T14:12:11;16.77;;;7.82;;
22417;SDS011;11376;50.932;4.442;2024-01-10T14:14:37;16.60;;;8.18;;
22417;SDS011;11376;50.932;4.442;2024-01-10T14:17:03;15.95;;;8.48;;
22417;SDS011;11376;50.932;4.442;2024-01-10T14:19:31;19.25;;;8.70;;
22417;SDS011;11376;50.932;4.442;2024-01-10T14:22:00;16.50;;;8.60;;
22417;SDS011;11376;50.932;4.442;2024-01-10T14:24:26;15.43;;;7.90;;
22417;SDS011;11376;50.932;4.442;2024-01-10T14:26:52;15.40;;;8.15;;
22417;SDS011;11376;50.932;4.442;2024-01-10T14:29:17;15.85;;;8.10;;
22417;SDS011;11376;50.932;4.442;2024-01-10T14:31:44;16.15;;;8.38;;
22417;SDS011;11376;50.932;4.442;2024-01-10T14:34:09;16.67;;;8.80;;
22417;SDS011;11376;50.932;4.442;2024-01-10T14:36:36;15.40;;;8.17;;
22417;SDS011;11376;50.932;4.442;2024-01-10T14:39:02;16.00;;;7.93;;